Terminal Aerodrome Forecast
Issued by NWS Nashville, TN

Current Version | Previous Version | Text Only | Print | Product List | Glossary Off
Versions: 1 2 3 4 5 6 7 8 9 10 11 12 13 14 15 16 17 18 19 20

985
FTUS44 KOHX 260058 AAA
TAFCSV
TAF AMD
KCSV 260058Z 2601/2624 26009KT P6SM VCSH BKN050 OVC070
      TEMPO 2602/2606 5SM -SHRA OVC035
     FM260600 16008KT 6SM -SHRA OVC027
     FM261900 20011G17KT P6SM BKN040=

USA.gov is the U.S. government's official web portal to all federal, state and local government web resources and services.